Burns Pinion Ridge Reserve, California Weather observations

Data are for 10 minute period ending at time listed.
 Day   Time   Solar   Ave.   Ave.  Ave.  Vector  Max.   Baro.   Total    
  of    of     Rad.   Air    Rel.  Wind   Wind   Wind  Press.  Precip.   
Year   Day            Temp.  Hum.  Speed  Dir.   Gust                    
2017   (PST)  Kw/m2    F      %     mph   deg.    mph    mb.     in.     
-------------------------------------------------------------------------
 203   17:10   0.29   91.7    19    6.4   196    13.4   874.2    0.00 
 203   17:20   0.26   92.2    19    5.8   207    16.3   874.2    0.00 
 203   17:30   0.23   92.3    19    4.9   196    11.6   874.2    0.00 
 203   17:40   0.19   92.1    19    4.0   200    10.0   874.3    0.00 
 203   17:50   0.16   91.0    20    6.9   224    13.2   874.3    0.00 
 203   18:00   0.13   90.1    21    5.0   202    10.6   874.4    0.00 
 203   18:10   0.10   89.9    21    5.3   199    10.2   874.5    0.00 
 203   18:20   0.07   89.5    22    4.8   188    10.7   874.6    0.00 
 203   18:30   0.05   88.4    22    5.4   196    10.3   874.6    0.00 
 203   18:40   0.02   87.2    23    5.0   188    10.6   874.7    0.00 
 203   18:50   0.01   86.2    24    5.6   196    11.5   874.7    0.00 
 203   19:00   0.00   85.6    24    4.8   200     9.6   874.8    0.00 
 203   19:10   0.00   85.2    25    5.4   197    10.7   875.0    0.00 
 203   19:20   0.00   84.9    26    4.6   202     8.3   875.1    0.00 
 203   19:30   0.00   84.7    26    4.7   202     9.1   875.2    0.00 
 203   19:40   0.00   84.3    27    4.7   186    11.1   875.2    0.00 
 203   19:50   0.00   84.0    27    5.7   207    10.0   875.3    0.00 
 203   20:00   0.00   83.7    27    5.9   205    11.5   875.4    0.00 
 203   20:10   0.00   83.4    28    4.7   199     9.8   875.4    0.00 
 203   20:20   0.00   83.2    28    6.0   205    11.1   875.5    0.00 
 203   20:30   0.00   82.9    28    5.0   199    11.2   875.5    0.00 
 203   20:40   0.00   82.5    29    5.1   216    13.2   875.5    0.00 
 203   20:50   0.00   82.2    29    4.2   205     9.3   875.5    0.00 
 203   21:00   0.00   82.0    29    4.6   193    11.2   875.5    0.00 
 203   21:10   0.00   82.2    29    7.2   214    13.5   875.7    0.00 
 203   21:20   0.00   82.1    29    6.6   210    11.8   875.8    0.00 
 203   21:30   0.00   81.7    29    4.5   184     9.6   875.9    0.00 
 203   21:40   0.00   81.4    30    6.2   190    15.7   875.9    0.00 
 203   21:50   0.00   81.1    31    5.6   198    12.8   876.0    0.00 
 203   22:00   0.00   80.9    32    5.2   198    11.0   876.0    0.00 
 203   22:10   0.00   80.7    32    5.9   207    13.2   876.0    0.00 
 203   22:20   0.00   80.8    32    5.1   197    13.7   876.0    0.00 
 203   22:30   0.00   80.6    32    5.8   209    10.6   876.0    0.00 
 203   22:40   0.00   80.4    32    4.5   211     7.6   876.0    0.00 
 203   22:50   0.00   80.4    32    5.1   188     9.9   876.0    0.00 
 203   23:00   0.00   80.4    32    5.5   199    13.1   875.9    0.00 
 203   23:10   0.00   80.2    33    4.8   203    10.0   875.9    0.00 
 203   23:20   0.00   80.5    32    6.4   208    11.9   875.9    0.00 
 203   23:30   0.00   80.2    33    5.0   198     9.6   875.9    0.00 
 203   23:40   0.00   80.1    33    5.7   204    11.1   875.9    0.00 
 203   23:50   0.00   80.0    33    6.6   205    12.3   875.8    0.00 
 204    0:00   0.00   80.0    33    5.4   199    13.3   875.8    0.00 
 204    0:10   0.00   79.9    33    7.0   203    14.2   875.7    0.00 
 204    0:20   0.00   79.9    34    7.3   212    12.3   875.6    0.00 
 204    0:30   0.00   79.6    34    6.5   204    13.1   875.6    0.00 
 204    0:40   0.00   79.4    35    5.7   206    10.9   875.5    0.00 
 204    0:50   0.00   79.4    35    5.8   204    10.2   875.4    0.00 
 204    1:00   0.00   79.3    35    6.7   216    14.5   875.3    0.00 
 204    1:10   0.00   78.7    36    5.6   218     9.9   875.3    0.00 
 204    1:20   0.00   78.7    37    6.5   210    11.2   875.3    0.00 
 204    1:30   0.00   78.9    38    7.1   209    10.9   875.2    0.00 
 204    1:40   0.00   78.7    38    5.8   211    10.4   875.2    0.00 
 204    1:50   0.00   78.7    38    7.2   212    11.7   875.2    0.00 
 204    2:00   0.00   78.6    37    6.9   202    12.1   875.2    0.00 
 204    2:10   0.00   78.3    38    7.6   203    10.6   875.1    0.00 
 204    2:20   0.00   78.0    38    6.8   205     9.7   875.1    0.00 
 204    2:30   0.00   77.5    39    6.9   200     9.6   875.0    0.00 
 204    2:40   0.00   77.1    40    6.7   203     9.6   874.9    0.00 
 204    2:50   0.00   76.8    40    5.9   198     8.4   874.9    0.00 
 204    3:00   0.00   76.7    41    5.4   210     8.5   874.9    0.00 
 204    3:10   0.00   76.6    41    5.0   218     7.8   874.8    0.00 
 204    3:20   0.00   76.3    41    5.1   222     7.8   874.7    0.00 
 204    3:30   0.00   76.1    41    5.4   214     8.8   874.7    0.00 
 204    3:40   0.00   76.1    40    4.7   206     6.4   874.8    0.00 
 204    3:50   0.00   75.7    41    4.7   185     6.6   874.8    0.00 
 204    4:00   0.00   75.5    41    5.1   185     6.5   874.8    0.00 
 204    4:10   0.00   75.1    42    4.8   175     7.0   874.9    0.00 
 204    4:20   0.00   74.7    42    3.2   173     5.3   875.0    0.00 
 204    4:30   0.00   73.9    43    0.8   108     4.1   875.0    0.00 
 204    4:40   0.00   72.4    45    0.4   100     1.6   874.9    0.00 
 204    4:50   0.00   71.8    46    1.1   194     4.9   874.8    0.00 
 204    5:00   0.00   72.6    44    2.2   227     4.9   874.9    0.00 
 204    5:10   0.01   72.6    44    1.5   219     5.0   875.0    0.00 
 204    5:20   0.01   73.6    42    4.0   211     6.9   875.0    0.00 
 204    5:30   0.04   76.2    38    5.6   206     7.7   875.1    0.00 
 204    5:40   0.07   78.1    35    5.5   207     7.5   875.2    0.00 
 204    5:50   0.10   79.2    34    5.1   204     7.7   875.4    0.00 
 204    6:00   0.13   80.4    33    4.6   187     7.8   875.5    0.00 
 204    6:10   0.16   81.0    32    4.7   202     6.7   875.5    0.00 
 204    6:20   0.20   82.0    31    3.3   217     5.7   875.6    0.00 
 204    6:30   0.23   83.0    30    2.4   218     4.6   875.6    0.00 
 204    6:40   0.26   84.0    29    2.5   215     5.0   875.7    0.00 
 204    6:50   0.29   84.8    28    1.7   192     4.5   875.8    0.00 
 204    7:00   0.33   85.8    28    2.1   230     3.7   875.8    0.00 
 204    7:10   0.37   85.8    27    1.9   246     4.2   875.8    0.00 
 204    7:20   0.40   88.0    25    1.0   240     3.2   875.8    0.00 
 204    7:30   0.43   90.1    23    1.1   102     3.7   875.9    0.00 
 204    7:40   0.47   89.8    24    2.9   155     5.3   875.9    0.00 
 204    7:50   0.50   89.8    23    1.8   120     4.7   875.9    0.00 
 204    8:00   0.53   88.9    23    4.3    71     9.8   876.0    0.00 
 204    8:10   0.57   89.4    23    3.7    69     7.5   875.9    0.00 
 204    8:20   0.60   90.2    22    3.2   103     8.2   875.8    0.00 
 204    8:30   0.63   89.7    22    4.6   126     7.6   875.8    0.00 
 204    8:40   0.66   89.2    23    4.9   102     9.3   875.8    0.00 
 204    8:50   0.68   90.5    22    4.9   133    10.2   875.9    0.00 
 204    9:00   0.71   91.1    22    4.5   122     9.6   875.8    0.00 
 204    9:10   0.74   91.0    21    3.7   138     9.2   875.8    0.00 
 204    9:20   0.76   92.6    20    3.6    56    11.3   875.7    0.00 
 204    9:30   0.79   92.8    20    4.9   140     9.9   875.7    0.00 
 204    9:40   0.81   92.7    19    3.9    93     8.9   875.6    0.00 
 204    9:50   0.83   91.6    20    5.7    92    11.8   875.6    0.00 
 204   10:00   0.85   92.9    18    4.5    83     9.7   875.6    0.00 
 204   10:10   0.86   93.7    18    5.2   116     8.9   875.6    0.00 
 204   10:20   0.88   92.2    20    4.5   117     9.6   875.5    0.00 
 204   10:30   0.89   92.9    20    4.2   142     9.6   875.6    0.00 
 204   10:40   0.91   93.2    20    5.2   152    12.1   875.5    0.00 
 204   10:50   0.92   94.2    20    5.7   170    11.8   875.5    0.00 
 204   11:00   0.93   94.2    20    6.2   156    11.8   875.4    0.00 
 204   11:10   0.94   94.0    20    5.6   169    12.2   875.3    0.00 
 204   11:20   0.94   93.3    21    7.6   183    15.9   875.3    0.00 
 204   11:30   0.94   91.6    22    7.8   211    14.1   875.2    0.00 
 204   11:40   0.95   93.2    21    7.0   169    17.5   875.2    0.00 
 204   11:50   0.95   92.5    21    7.3   187    14.2   875.1    0.00 
 204   12:00   0.95   92.0    22    7.1   188    15.4   875.1    0.00 
 204   12:10   0.93   91.5    22    8.8   213    20.6   875.1    0.00 
 204   12:20   0.95   91.1    22    7.2   190    15.1   875.0    0.00 
 204   12:30   0.94   92.3    22    7.9   207    20.5   874.8    0.00 
 204   12:40   0.94   92.0    22    7.8   210    17.0   874.8    0.00 
 204   12:50   0.93   92.0    22    9.1   217    17.8   874.8    0.00 
 204   13:00   0.92   91.0    23   10.2   214    17.8   874.7    0.00 
 204   13:10   0.91   91.0    23    8.3   200    18.3   874.6    0.00 
 204   13:20   0.90   92.6    23    6.7   205    16.0   874.6    0.00 
 204   13:30   0.88   92.1    23    8.6   221    18.9   874.5    0.00 
 204   13:40   0.87   91.7    24    8.3   220    17.2   874.4    0.00 
 204   13:50   0.85   92.2    23    7.8   221    14.8   874.2    0.00 
 204   14:00   0.83   91.9    24    8.5   222    18.0   874.1    0.00 
 204   14:10   0.81   91.8    24    8.4   213    18.8   874.0    0.00 
 204   14:20   0.79   91.3    25    9.8   216    19.7   873.8    0.00 
 204   14:30   0.77   91.8    25    8.6   209    16.1   873.7    0.00 
 204   14:40   0.74   92.0    26    8.9   209    19.1   873.5    0.00 
 204   14:50   0.72   91.1    27    9.8   222    19.1   873.4    0.00 
 204   15:00   0.69   90.9    27   10.2   208    19.8   873.4    0.00 
 204   15:10   0.67   90.5    28    9.8   213    19.1   873.3    0.00 
 204   15:20   0.64   91.0    28    8.6   208    18.3   873.2    0.00 
 204   15:30   0.61   90.4    29    9.4   214    16.4   873.2    0.00 
 204   15:40   0.58   90.0    29    9.3   220    17.7   873.1    0.00 
 204   15:50   0.55   90.3    29    9.8   214    18.1   873.1    0.00 
 204   16:00   0.52   89.2    30   10.8   213    17.5   873.0    0.00 
 204   16:10   0.48   89.5    30   11.0   218    22.6   872.8    0.00 
 204   16:20   0.44   88.7    30   10.3   216    21.3   872.8    0.00 
 204   16:30   0.40   89.0    29   10.3   212    20.4   872.8    0.00 
 204   16:40   0.38   88.8    29    9.8   212    18.8   872.6    0.00 
 204   16:50   0.35   89.3    27    9.9   207    19.9   872.6    0.00 
 204   17:00   0.31   90.1    25    7.0   213    19.5   872.4    0.00 

Return to Burns Pinion Ridge Reserve graphs page.


Western Regional Climate Center,wrcc@dri.edu